Latest Coastal Weather Observations for Cape Borda

IDT60701

Issued at 3:02 pm EST Friday 28 August 2015 (issued every 10 minutes, with the page automatically refreshed every 10 minutes)

About coastal observations | Map of coastal stations | Coastal observations for TAS | Marine services | Other Formats
Station Details ID: 022823 Name: CAPE BORDA Lat: -35.75 Lon: 136.60 Height: 158.0 m
Data from the previous 72 hours. | See also: Recent months at Cape Borda
Date/Time
EST
Temp

°C
Wind Pressure Rain
since 9am
mm
Weather Cloud Vis
km
Sea
Height
m
Swell
Dir
 
Speed
knots
Gust
knots
hPa Trend Height
m
Period
s
Dir
28/03:00pm 12.1 SSE 8 11 1028.3 - 0.0 - - - - - - -
28/02:30pm 12.4 S 5 9 1028.4 - 0.0 - - - - - - -
28/02:00pm 12.4 S 5 8 1028.6 - 0.0 - - - - - - -
28/01:30pm 12.5 SE 6 10 1028.9 - 0.0 - - - - - - -
28/01:00pm 12.0 SSE 8 11 1029.3 - 0.0 - - - - - - -
28/12:30pm 11.6 SE 8 12 1030.0 - 0.0 - - - - - - -
28/12:00pm 12.1 SE 6 10 1030.0 - 0.0 - - - - - - -
28/11:30am 12.0 SE 8 10 1030.2 - 0.0 - - - - - - -
28/11:00am 11.7 SSE 8 11 1030.4 - 0.0 - - - - - - -
28/10:30am 11.5 SSE 9 13 1030.3 - 0.0 - - - - - - -
28/10:00am 12.2 SSE 9 14 1030.3 - 0.0 - - - - - - -
28/09:30am 10.9 SE 7 10 1030.5 F 0.0 Fine Mostly cloudy 22 <0.1 3.7 8 SW
28/09:00am 10.2 SSE 7 9 1030.2 - 0.0 - - - - - - -
28/08:30am 9.3 S 7 9 1030.0 - 0.0 - - - - - - -
28/08:00am 8.6 SSE 7 9 1029.8 - 0.0 - - - - - - -
28/07:30am 8.2 SSE 7 8 1029.6 - 0.0 - - - - - - -
28/07:00am 8.2 SSE 8 9 1029.5 - 0.0 - - - - - - -
28/06:30am 8.4 S 7 8 1029.6 - 0.0 - - - - - - -
28/06:00am 8.6 SSE 9 11 1029.3 - 0.0 - - - - - - -
28/05:30am 8.5 S 8 11 1029.3 - 0.0 - - - - - - -
28/05:00am 8.3 SSE 8 10 1029.0 - 0.0 - - - - - - -
28/04:30am 7.7 SSE 7 9 1029.0 - 0.0 - - - - - - -
28/04:00am 8.1 S 6 7 1028.9 - 0.0 - - - - - - -
28/03:30am 8.7 S 7 10 1029.3 - 0.0 - - - - - - -
28/03:00am 8.7 S 7 9 1029.2 - 0.0 - - - - - - -
28/02:30am 8.5 S 7 8 1029.3 - 0.0 - - - - - - -
28/02:00am 8.5 SSE 5 6 1029.4 - 0.0 - - - - - - -
28/01:30am 8.3 S 5 6 1029.2 - 0.0 - - - - - - -
28/01:00am 8.1 S 7 8 1029.0 - 0.0 - - - - - - -
28/12:30am 8.3 S 8 10 1029.2 - 0.0 - - - - - - -
28/12:00am 7.5 S 7 8 1029.2 - 0.0 - - - - - - -
 
Date/Time
EST
Temp

°C
Wind Pressure Rain
since 9am
mm
Weather Cloud Vis
km
Sea
Height
m
Swell
Dir
 
Speed
knots
Gust
knots
hPa Trend Height
m
Period
s
Dir
27/11:30pm 7.3 S 8 9 1029.2 - 0.0 - - - - - - -
27/11:00pm 8.2 S 7 10 1029.3 - 0.0 - - - - - - -
27/10:30pm 8.5 S 7 9 1029.6 - 0.0 - - - - - - -
27/10:00pm 8.3 S 7 10 1029.6 - 0.0 - - - - - - -
27/09:30pm 7.6 S 7 8 1029.7 - 0.0 - - - - - - -
27/09:00pm 7.6 S 7 9 1029.4 - 0.0 - - - - - - -
27/08:30pm 7.9 S 9 12 1029.1 - 0.0 - - - - - - -
27/08:00pm 7.4 S 9 10 1028.8 - 0.0 - - - - - - -
27/07:30pm 7.9 S 8 10 1028.6 - 0.0 - - - - - - -
27/07:00pm 8.6 S 8 10 1028.4 - 0.0 - - - - - - -
27/06:30pm 9.3 S 8 13 1028.3 - 0.0 - - - - - - -
27/06:00pm 9.9 S 9 14 1027.8 - 0.0 - - - - - - -
27/05:30pm 10.3 S 11 16 1027.5 - 0.0 - - - - - - -
27/05:00pm 11.1 S 13 18 1027.1 - 0.0 - - - - - - -
27/04:30pm 11.6 S 17 24 1026.8 - 0.0 - - - - - - -
27/04:00pm 11.5 S 15 22 1026.6 - 0.0 - - - - - - -
27/03:30pm 13.5 S 11 18 1026.6 - 0.0 - - - - - - -
27/03:00pm 11.8 S 13 18 1026.3 - 0.0 - - - - - - -
27/02:30pm 12.1 S 14 20 1026.3 - 0.0 - - - - - - -
27/02:00pm 12.5 S 13 17 1026.5 - 0.0 - - - - - - -
27/01:30pm 11.8 S 14 19 1026.8 - 0.0 - - - - - - -
27/01:00pm 12.6 SSW 11 14 1027.0 - 0.0 - - - - - - -
27/12:30pm 11.6 S 13 18 1027.3 - 0.0 - - - - - - -
27/12:00pm 12.4 S 12 21 1027.2 - 0.0 - - - - - - -
27/11:30am 12.3 S 14 19 1027.2 - 0.0 - - - - - - -
27/11:00am 11.3 S 14 20 1027.2 - 0.0 - - - - - - -
27/10:30am 10.2 S 11 17 1027.2 - 0.0 - - - - - - -
27/10:00am 11.0 S 11 16 1027.0 - 0.0 - - - - - - -
27/09:30am 10.1 S 11 16 1027.0 - 2.4 - - - - - - -
27/09:00am 9.5 S 11 15 1026.6 - 2.4 - - - - - - -
27/08:30am 8.4 S 14 18 1026.3 - 2.4 - - - - - - -
27/08:00am 7.8 S 11 14 1025.8 - 2.4 - - - - - - -
27/07:30am 7.9 S 11 14 1025.5 - 2.4 - - - - - - -
27/07:00am 7.8 S 11 15 1025.1 - 2.4 - - - - - - -
27/06:30am 7.7 SSW 11 14 1024.8 - 2.4 - - - - - - -
27/06:00am 7.5 S 12 15 1024.5 - 2.4 - - - - - - -
27/05:30am 8.3 SSW 12 17 1024.2 - 2.2 - - - - - - -
27/05:00am 7.6 S 11 14 1024.0 - 2.2 - - - - - - -
27/04:30am 7.5 S 10 12 1023.9 - 2.2 - - - - - - -
27/04:00am 7.8 S 10 14 1024.0 - 2.2 - - - - - - -
27/03:30am 7.3 S 11 13 1024.3 - 2.0 - - - - - - -
27/03:00am 7.1 S 7 8 1024.4 - 2.0 - - - - - - -
27/02:30am 6.5 S 8 9 1024.3 - 2.0 - - - - - - -
27/02:00am 7.2 S 9 11 1024.4 - 2.0 - - - - - - -
27/01:30am 7.0 S 8 10 1024.5 - 2.0 - - - - - - -
27/01:00am 7.0 S 9 10 1024.7 - 2.0 - - - - - - -
27/12:30am 6.9 S 9 11 1024.8 - 2.0 - - - - - - -
27/12:00am 6.6 S 8 9 1024.6 - 1.8 - - - - - - -
 
Date/Time
EST
Temp

°C
Wind Pressure Rain
since 9am
mm
Weather Cloud Vis
km
Sea
Height
m
Swell
Dir
 
Speed
knots
Gust
knots
hPa Trend Height
m
Period
s
Dir
26/11:30pm 6.4 SSE 9 10 1024.9 - 1.8 - - - - - - -
26/11:00pm 6.4 SSE 9 10 1025.1 - 1.8 - - - - - - -
26/10:30pm 6.7 SSE 8 10 1025.0 - 1.8 - - - - - - -
26/10:00pm 6.8 SSE 9 10 1025.0 - 1.8 - - - - - - -
26/09:30pm 7.1 SSE 7 8 1025.1 - 1.8 - - - - - - -
26/09:00pm 7.2 SSE 8 9 1024.8 - 1.8 - - - - - - -
26/08:30pm 7.5 S 9 10 1024.8 - 1.8 - - - - - - -
26/08:00pm 7.3 SSE 8 9 1024.6 - 1.6 - - - - - - -
26/07:30pm 7.9 SSE 8 9 1024.5 - 1.6 - - - - - - -
26/07:00pm 7.8 S 8 9 1024.4 - 1.4 - - - - - - -
26/06:30pm 8.5 SSE 8 10 1024.5 - 1.2 - - - - - - -
26/06:00pm 9.8 SE 4 5 1024.3 - 0.2 - - - - - - -
26/05:30pm 9.9 E 3 4 1023.9 - 0.2 - - - - - - -
26/05:00pm 10.0 ESE 5 9 1023.8 - 0.2 - - - - - - -
26/04:30pm 11.1 S 8 11 1023.7 - 0.2 - - - - - - -
26/04:00pm 10.7 S 5 9 1023.6 - 0.2 - - - - - - -
26/03:30pm 9.7 ESE 6 9 1023.9 - 0.2 - - - - - - -
26/03:00pm 10.2 ESE 8 11 1023.8 - 0.2 - - - - - - -
26/02:30pm 10.3 SE 7 11 1023.8 - 0.2 - - - - - - -
26/02:00pm 12.0 SSE 7 12 1024.0 - 0.0 - - - - - - -
26/01:30pm 11.9 S 10 13 1024.4 - 0.0 - - - - - - -
26/01:00pm 11.3 S 10 13 1024.7 - 0.0 - - - - - - -
26/12:30pm 11.2 SSE 11 14 1025.2 - 0.0 - - - - - - -
26/12:00pm 10.9 S 12 15 1025.2 - 0.0 - - - - - - -
26/11:30am 11.5 SSE 9 13 1025.5 - 0.0 - - - - - - -
26/11:00am 11.5 SE 10 15 1025.6 - 0.0 - - - - - - -
26/10:30am 11.1 SSE 11 15 1025.7 - 0.0 - - - - - - -
26/10:00am 10.1 S 11 15 1025.9 - 0.0 - - - - - - -
26/09:30am 8.1 SSE 9 11 1026.1 - 1.2 - - - - - - -
26/09:00am 7.4 SSE 7 8 1025.9 - 1.2 - - - - - - -
26/08:30am 6.3 SE 9 10 1025.7 - 1.2 - - - - - - -
26/08:00am 6.1 SE 9 10 1025.5 - 1.2 - - - - - - -
26/07:30am 6.2 SE 8 9 1025.5 - 1.2 - - - - - - -
26/07:00am 6.2 SE 8 9 1025.6 - 1.0 - - - - - - -
26/06:30am 5.9 SSE 8 9 1025.9 - 1.0 - - - - - - -
26/06:00am 6.2 SSE 7 8 1025.7 - 1.0 - - - - - - -
26/05:30am 6.1 SSE 7 7 1025.8 - 1.0 - - - - - - -
26/05:00am 6.1 SSE 7 7 1025.8 - 1.0 - - - - - - -
26/04:30am 6.9 SE 4 5 1025.8 - 1.0 - - - - - - -
26/04:00am 6.6 SE 6 6 1025.9 - 1.0 - - - - - - -
26/03:30am 7.2 SE 8 10 1026.2 - 1.0 - - - - - - -
26/03:00am 6.5 SE 10 12 1026.2 - 1.0 - - - - - - -
26/02:30am 6.2 SE 9 11 1026.4 - 1.0 - - - - - - -
26/02:00am 6.4 SSE 11 13 1026.6 - 1.0 - - - - - - -
26/01:30am 6.4 SSE 11 12 1026.8 - 1.0 - - - - - - -
26/01:00am 7.0 SSE 11 13 1027.2 - 1.0 - - - - - - -
26/12:30am 7.1 SSE 10 11 1027.5 - 1.0 - - - - - - -
26/12:00am 7.0 SE 13 16 1027.5 - 1.0 - - - - - - -
 
Date/Time
EST
Temp

°C
Wind Pressure Rain
since 9am
mm
Weather Cloud Vis
km
Sea
Height
m
Swell
Dir
 
Speed
knots
Gust
knots
hPa Trend Height
m
Period
s
Dir
25/11:30pm 6.9 SSE 11 15 1027.6 - 1.0 - - - - - - -
25/11:00pm 7.3 SSE 9 11 1027.8 - 0.8 - - - - - - -
25/10:30pm 7.3 SE 11 13 1028.1 - 0.6 - - - - - - -
25/10:00pm 7.5 SE 13 19 1027.9 - 0.6 - - - - - - -
25/09:30pm 7.4 SE 12 18 1028.1 - 0.6 - - - - - - -
25/09:00pm 7.5 SSE 13 17 1027.9 - 0.6 - - - - - - -
25/08:30pm 7.5 SSE 10 14 1028.0 - 0.6 - - - - - - -
25/08:00pm 7.8 SSE 11 15 1028.0 - 0.4 - - - - - - -
25/07:30pm 7.6 SSE 12 16 1027.9 - 0.4 - - - - - - -
25/07:00pm 8.1 SSE 9 14 1027.7 - 0.4 - - - - - - -
25/06:30pm 8.3 SE 7 11 1027.8 - 0.4 - - - - - - -
25/06:00pm 9.0 SSE 11 16 1027.2 - 0.4 - - - - - - -
25/05:30pm 9.3 SSE 11 15 1027.2 - 0.4 - - - - - - -
25/05:00pm 10.3 SSE 9 14 1027.2 - 0.4 - - - - - - -
25/04:30pm 10.2 S 10 20 1027.2 - 0.4 - - - - - - -
25/04:00pm 10.0 S 12 16 1027.3 - 0.4 - - - - - - -

Other Formats:

Comma delimited format used in spreadsheet applications
http://www.bom.gov.au/fwo/IDT60701/IDT60701.95805.axf

JavaScript Object Notation format (JSON) in row-major order
http://www.bom.gov.au/fwo/IDT60701/IDT60701.95805.json